createdAt,value
2018-02-11T00:00:54.192Z,88.42
2018-02-11T00:03:21.949Z,88.51
2018-02-11T00:05:49.735Z,88.26
2018-02-11T00:08:17.852Z,88.07
2018-02-11T00:10:45.588Z,88.26
2018-02-11T00:13:14.585Z,88.13
2018-02-11T00:15:44.479Z,88.28
2018-02-11T00:18:12.217Z,88.28
2018-02-11T00:20:40.390Z,88.31
2018-02-11T00:23:11.238Z,88.40
2018-02-11T00:25:40.016Z,88.39
2018-02-11T00:28:07.825Z,88.58
2018-02-11T00:30:36.415Z,88.71
2018-02-11T00:33:04.317Z,88.56
2018-02-11T00:35:32.117Z,88.70
2018-02-11T00:38:11.847Z,88.65
2018-02-11T00:40:39.690Z,88.72
2018-02-11T00:43:07.489Z,88.69
2018-02-11T00:45:35.659Z,88.88
2018-02-11T00:48:06.509Z,88.73
2018-02-11T00:50:34.671Z,88.78
2018-02-11T00:53:06.851Z,88.64
2018-02-11T00:55:36.738Z,88.60
2018-02-11T00:58:04.514Z,88.76
2018-02-11T01:00:32.885Z,88.70
2018-02-11T01:03:00.666Z,88.78
2018-02-11T01:05:28.416Z,88.87
2018-02-11T01:07:56.544Z,88.85
2018-02-11T01:10:24.291Z,88.84
2018-02-11T01:12:53.303Z,88.95
2018-02-11T01:15:21.114Z,89.24
2018-02-11T01:17:48.966Z,89.32
2018-02-11T01:20:16.704Z,89.59
2018-02-11T01:22:44.419Z,89.85
2018-02-11T01:25:12.580Z,89.93
2018-02-11T01:27:40.757Z,90.01
2018-02-11T01:30:08.803Z,90.62
2018-02-11T01:32:37.225Z,90.98
2018-02-11T01:35:06.406Z,91.14
2018-02-11T01:37:35.776Z,91.25
2018-02-11T01:40:03.661Z,91.64
2018-02-11T01:42:32.351Z,91.60
2018-02-11T01:45:00.129Z,91.58
2018-02-11T01:47:27.849Z,92.16
2018-02-11T01:50:07.709Z,92.39
2018-02-11T01:52:36.138Z,92.51
2018-02-11T01:55:04.710Z,92.68
2018-02-11T01:57:32.607Z,92.73
2018-02-11T02:00:00.492Z,92.86
2018-02-11T02:02:28.410Z,92.67
2018-02-11T02:04:56.205Z,92.95
2018-02-11T02:07:25.036Z,92.99
2018-02-11T02:09:53.549Z,93.16
2018-02-11T02:12:22.033Z,93.18
2018-02-11T02:14:49.870Z,93.20
2018-02-11T02:17:17.680Z,93.33
2018-02-11T02:19:45.897Z,93.29
2018-02-11T02:22:14.035Z,93.21
2018-02-11T02:24:44.022Z,93.42
2018-02-11T02:27:15.067Z,93.72
2018-02-11T02:29:46.659Z,93.86
2018-02-11T02:32:20.081Z,93.75
2018-02-11T02:34:51.404Z,93.80
2018-02-11T02:39:55.575Z,94.14
2018-02-11T02:42:25.044Z,94.27
2018-02-11T02:44:54.996Z,94.29
2018-02-11T02:47:22.813Z,94.24
2018-02-11T02:49:50.679Z,94.41
2018-02-11T02:52:18.957Z,94.73
2018-02-11T02:54:46.784Z,95.00
2018-02-11T02:57:16.726Z,95.03
2018-02-11T02:59:44.567Z,95.14
2018-02-11T03:02:13.953Z,95.09
2018-02-11T03:04:42.848Z,95.20
2018-02-11T03:07:10.640Z,95.30
2018-02-11T03:09:39.672Z,95.42
2018-02-11T03:12:07.419Z,95.44
2018-02-11T03:14:35.466Z,95.55
2018-02-11T03:17:03.170Z,95.60
2018-02-11T03:19:30.865Z,95.62
2018-02-11T03:21:58.662Z,95.73
2018-02-11T03:24:26.842Z,95.74
2018-02-11T03:26:54.490Z,95.90
2018-02-11T03:29:22.200Z,95.99
2018-02-11T03:31:49.957Z,96.06
2018-02-11T03:34:18.625Z,96.06
2018-02-11T03:36:49.062Z,96.15
2018-02-11T03:39:17.521Z,95.97
2018-02-11T03:41:45.239Z,95.97
2018-02-11T03:44:13.062Z,95.71
2018-02-11T03:46:40.818Z,95.61
2018-02-11T03:49:09.297Z,95.62
2018-02-11T03:51:37.023Z,95.46
2018-02-11T03:54:04.855Z,95.41
2018-02-11T03:56:32.594Z,95.41
2018-02-11T03:59:00.411Z,95.54
2018-02-11T04:01:31.387Z,95.59
2018-02-11T04:04:00.204Z,95.42
2018-02-11T04:06:30.823Z,95.39
2018-02-11T04:09:00.486Z,95.35
2018-02-11T04:11:37.411Z,95.35
2018-02-11T04:17:11.100Z,95.28
2018-02-11T04:19:49.482Z,95.32
2018-02-11T04:22:39.062Z,95.40
2018-02-11T04:25:22.313Z,95.31
2018-02-11T04:30:41.088Z,95.22
2018-02-11T04:33:28.161Z,95.28
2018-02-11T04:36:24.842Z,95.20
2018-02-11T04:56:46.931Z,94.94
2018-02-11T05:15:21.718Z,95.33
2018-02-11T06:36:42.920Z,97.31
2018-02-11T06:39:10.802Z,97.31
2018-02-11T06:41:40.958Z,97.33
2018-02-11T06:44:08.701Z,97.31
2018-02-11T06:46:36.492Z,97.22
2018-02-11T06:49:04.367Z,97.08
2018-02-11T06:51:32.144Z,96.91
2018-02-11T06:53:59.957Z,96.96
2018-02-11T06:56:28.233Z,96.90
2018-02-11T06:58:57.826Z,96.89
2018-02-11T07:01:26.678Z,96.88
2018-02-11T07:03:54.729Z,96.73
2018-02-11T07:06:22.461Z,96.59
2018-02-11T07:08:50.262Z,96.53
2018-02-11T07:11:18.075Z,96.51
2018-02-11T07:13:45.899Z,96.57
2018-02-11T07:16:13.678Z,96.58
2018-02-11T07:18:42.205Z,96.42
2018-02-11T07:21:09.928Z,96.45
2018-02-11T07:23:37.646Z,96.44
2018-02-11T07:26:05.359Z,96.70
2018-02-11T07:28:33.154Z,96.66
2018-02-11T07:31:00.901Z,96.62
2018-02-11T07:33:28.614Z,96.55
2018-02-11T07:35:56.368Z,96.43
2018-02-11T07:38:24.100Z,96.48
2018-02-11T07:40:51.877Z,96.48
2018-02-11T07:43:19.583Z,96.59
2018-02-11T07:45:47.332Z,96.57
2018-02-11T07:48:15.048Z,96.65
2018-02-11T07:50:42.822Z,96.52
2018-02-11T07:53:10.540Z,96.62
2018-02-11T07:55:38.338Z,96.54
2018-02-11T07:58:06.096Z,96.64
2018-02-11T08:00:33.873Z,96.74
2018-02-11T08:03:01.677Z,96.85
2018-02-11T08:05:29.955Z,96.87
2018-02-11T08:07:57.670Z,96.79
2018-02-11T08:10:25.428Z,96.79
2018-02-11T08:12:53.174Z,96.72
2018-02-11T08:15:21.977Z,96.83
2018-02-11T08:17:49.648Z,97.07
2018-02-11T08:20:17.312Z,97.08
2018-02-11T08:22:46.269Z,97.06
2018-02-11T08:25:14.407Z,97.02
2018-02-11T08:27:42.094Z,96.97
2018-02-11T08:30:09.875Z,97.00
2018-02-11T08:32:37.643Z,97.17
2018-02-11T08:35:05.988Z,97.22
2018-02-11T08:37:33.738Z,97.10
2018-02-11T08:40:01.464Z,97.00
2018-02-11T08:42:29.294Z,96.89
2018-02-11T08:44:57.906Z,97.11
2018-02-11T08:47:25.966Z,97.19
2018-02-11T08:49:53.729Z,97.10
2018-02-11T08:52:21.447Z,96.98
2018-02-11T08:54:49.145Z,96.90
2018-02-11T08:57:16.931Z,96.89
2018-02-11T08:59:57.409Z,96.83
2018-02-11T09:05:05.523Z,96.65
2018-02-11T09:07:33.203Z,96.59
2018-02-11T09:10:00.939Z,96.50
2018-02-11T09:12:28.685Z,96.19
2018-02-11T09:14:56.435Z,96.20
2018-02-11T09:17:24.200Z,96.35
2018-02-11T09:19:52.705Z,96.02
2018-02-11T09:22:21.362Z,95.46
2018-02-11T09:24:50.721Z,95.77
2018-02-11T09:30:07.534Z,96.28
2018-02-11T09:36:11.798Z,96.38
2018-02-11T09:39:20.834Z,96.51
2018-02-11T10:17:11.982Z,93.04
2018-02-11T10:19:39.775Z,93.26
2018-02-11T10:22:07.521Z,93.50
2018-02-11T10:24:35.283Z,91.95
2018-02-11T10:27:03.057Z,90.83
2018-02-11T10:29:30.873Z,91.09
2018-02-11T10:32:00.128Z,89.52
2018-02-11T10:34:27.859Z,89.18
2018-02-11T10:36:55.598Z,87.44
2018-02-11T10:39:26.740Z,87.71
2018-02-11T10:41:55.361Z,87.06
2018-02-11T10:44:26.954Z,85.33
2018-02-11T10:46:56.027Z,84.55
2018-02-11T10:49:23.949Z,82.12
2018-02-11T10:51:51.823Z,82.95
2018-02-11T10:54:19.650Z,81.76
2018-02-11T10:56:48.245Z,81.63
2018-02-11T10:59:15.990Z,81.00
2018-02-11T11:01:46.378Z,80.74
2018-02-11T11:04:15.091Z,80.79
2018-02-11T11:06:42.814Z,81.42
2018-02-11T11:09:10.529Z,80.77
2018-02-11T11:11:38.325Z,79.34
2018-02-11T11:14:06.108Z,80.47
2018-02-11T11:16:33.806Z,80.59
2018-02-11T11:19:01.517Z,80.47
2018-02-11T11:21:29.711Z,81.10
2018-02-11T11:23:58.818Z,79.95
2018-02-11T11:26:26.637Z,79.87
2018-02-11T11:28:55.040Z,80.35
2018-02-11T11:31:22.772Z,81.04
2018-02-11T11:33:51.715Z,80.37
2018-02-11T11:36:19.497Z,79.83
2018-02-11T11:38:47.246Z,79.70
2018-02-11T11:41:14.948Z,79.10
2018-02-11T11:43:43.109Z,78.22
2018-02-11T11:46:12.593Z,79.23
2018-02-11T11:48:40.532Z,77.47
2018-02-11T11:51:08.311Z,78.57
2018-02-11T11:53:36.011Z,77.64
2018-02-11T11:56:03.795Z,77.29
2018-02-11T11:58:31.528Z,77.08
2018-02-11T12:00:59.467Z,76.62
2018-02-11T12:03:27.205Z,76.07
2018-02-11T12:05:54.925Z,77.58
2018-02-11T12:08:22.642Z,76.36
2018-02-11T12:10:50.490Z,75.60
2018-02-11T12:13:19.305Z,75.68
2018-02-11T12:15:47.022Z,76.04
2018-02-11T12:18:15.028Z,75.56
2018-02-11T12:20:42.689Z,76.05
2018-02-11T12:23:10.316Z,76.04
2018-02-11T12:25:38.422Z,75.16
2018-02-11T12:28:06.186Z,76.08
2018-02-11T12:30:33.961Z,75.79
2018-02-11T12:33:01.753Z,74.52
2018-02-11T12:35:29.498Z,75.52
2018-02-11T12:37:58.441Z,74.60
2018-02-11T12:40:26.552Z,74.70
2018-02-11T12:42:54.268Z,73.96
2018-02-11T12:45:25.905Z,74.68
2018-02-11T12:47:54.811Z,74.30
2018-02-11T12:50:22.843Z,73.93
2018-02-11T12:52:50.691Z,72.99
2018-02-11T12:55:18.411Z,74.30
2018-02-11T12:57:46.168Z,74.57
2018-02-11T13:00:14.019Z,73.18
2018-02-11T13:02:41.779Z,71.77
2018-02-11T13:05:09.565Z,71.41
2018-02-11T13:07:37.240Z,70.03
2018-02-11T13:10:04.966Z,72.10
2018-02-11T13:12:32.690Z,71.11
2018-02-11T13:15:00.377Z,69.69
2018-02-11T13:17:28.445Z,68.30
2018-02-11T13:19:56.157Z,66.86
2018-02-11T13:22:23.813Z,68.18
2018-02-11T13:24:51.569Z,66.64
2018-02-11T13:27:19.301Z,67.09
2018-02-11T13:29:46.977Z,67.98
2018-02-11T13:32:14.662Z,67.44
2018-02-11T13:34:42.390Z,69.44
2018-02-11T13:37:10.030Z,67.08
2018-02-11T13:39:37.996Z,68.12
2018-02-11T13:42:05.691Z,68.35
2018-02-11T13:44:33.388Z,67.93
2018-02-11T13:47:01.113Z,68.47
2018-02-11T13:49:28.776Z,69.26
2018-02-11T13:51:56.456Z,68.26
2018-02-11T13:54:24.195Z,67.63
2018-02-11T13:56:51.895Z,68.21
2018-02-11T13:59:19.620Z,67.96
2018-02-11T14:01:47.311Z,68.68
2018-02-11T14:04:15.060Z,66.46
2018-02-11T14:06:42.775Z,67.05
2018-02-11T14:09:10.580Z,67.63
2018-02-11T14:11:38.224Z,67.12
2018-02-11T14:14:06.974Z,66.90
2018-02-11T14:16:35.127Z,66.47
2018-02-11T14:19:02.790Z,66.96
2018-02-11T14:21:30.875Z,67.07
2018-02-11T14:23:58.607Z,66.97
2018-02-11T14:26:26.346Z,67.66
2018-02-11T14:28:54.060Z,68.17
2018-02-11T14:31:21.924Z,69.04
2018-02-11T14:33:49.867Z,68.88
2018-02-11T14:36:17.599Z,68.04
2018-02-11T14:38:46.816Z,69.17
2018-02-11T14:41:14.902Z,69.39
2018-02-11T14:43:46.111Z,68.88
2018-02-11T14:46:13.867Z,68.22
2018-02-11T14:48:42.891Z,69.79
2018-02-11T14:51:10.729Z,68.80
2018-02-11T14:53:38.535Z,68.69
2018-02-11T14:56:06.324Z,68.00
2018-02-11T14:58:52.330Z,68.23
2018-02-11T15:01:20.447Z,67.45
2018-02-11T15:03:48.141Z,67.17
2018-02-11T15:06:15.900Z,67.75
2018-02-11T15:08:43.990Z,68.41
2018-02-11T15:11:11.728Z,68.17
2018-02-11T15:13:40.077Z,68.67
2018-02-11T15:16:07.716Z,68.71
2018-02-11T15:18:35.415Z,69.28
2018-02-11T15:21:04.134Z,69.74
2018-02-11T15:23:32.970Z,68.49
2018-02-11T15:26:06.320Z,69.13
2018-02-11T15:28:34.609Z,69.90
2018-02-11T15:31:02.690Z,70.28
2018-02-11T15:33:30.373Z,71.07
2018-02-11T15:35:58.053Z,70.77
2018-02-11T15:38:25.768Z,71.06
2018-02-11T15:40:53.431Z,71.64
2018-02-11T15:43:21.118Z,71.47
2018-02-11T15:45:49.043Z,72.23
2018-02-11T15:48:16.628Z,72.21
2018-02-11T15:50:44.281Z,71.59
2018-02-11T15:53:12.032Z,71.82
2018-02-11T15:55:46.465Z,72.01
2018-02-11T15:58:20.508Z,72.18
2018-02-11T16:00:48.463Z,72.31
2018-02-11T16:03:16.266Z,72.77
2018-02-11T16:05:43.982Z,72.66
2018-02-11T16:08:11.679Z,72.57
2018-02-11T16:10:39.471Z,72.53
2018-02-11T16:13:07.765Z,72.80
2018-02-11T16:15:35.525Z,73.34
2018-02-11T16:18:03.274Z,72.90
2018-02-11T16:20:31.089Z,73.01
2018-02-11T16:22:58.850Z,72.78
2018-02-11T16:25:26.613Z,73.61
2018-02-11T16:27:54.385Z,74.13
2018-02-11T16:30:22.120Z,78.17
2018-02-11T16:32:49.824Z,80.71
2018-02-11T16:35:17.468Z,81.88
2018-02-11T16:37:45.341Z,82.12
2018-02-11T16:40:13.360Z,82.94
2018-02-11T16:42:41.097Z,82.27
2018-02-11T16:45:08.882Z,81.88
2018-02-11T16:47:36.688Z,81.98
2018-02-11T16:50:04.442Z,81.86
2018-02-11T16:52:32.147Z,81.91
2018-02-11T16:54:59.786Z,81.99
2018-02-11T16:57:27.758Z,82.02
2018-02-11T16:59:55.459Z,81.93
2018-02-11T17:02:23.165Z,82.13
2018-02-11T17:04:51.066Z,82.18
2018-02-11T17:07:19.102Z,82.30
2018-02-11T17:09:53.131Z,82.73
2018-02-11T17:12:22.661Z,81.59
2018-02-11T17:14:53.433Z,80.37
2018-02-11T17:17:21.187Z,80.14
2018-02-11T17:19:49.245Z,79.97
2018-02-11T17:23:05.669Z,80.37
2018-02-11T17:25:40.394Z,81.31
2018-02-11T17:28:09.739Z,81.78
2018-02-11T17:30:37.904Z,81.86
2018-02-11T17:33:09.223Z,81.58
2018-02-11T17:35:36.881Z,81.72
2018-02-11T17:38:04.638Z,81.86
2018-02-11T17:40:32.307Z,81.48
2018-02-11T17:42:59.971Z,81.68
2018-02-11T17:45:30.908Z,81.47
2018-02-11T17:47:58.587Z,81.49
2018-02-11T17:50:26.324Z,81.73
2018-02-11T17:52:54.453Z,81.62
2018-02-11T17:55:27.869Z,81.58
2018-02-11T17:57:55.552Z,81.62
2018-02-11T18:00:23.200Z,81.63
2018-02-11T18:02:50.822Z,81.72
2018-02-11T18:05:18.474Z,81.74
2018-02-11T18:07:46.241Z,81.80
2018-02-11T18:10:13.882Z,81.94
2018-02-11T18:12:41.575Z,81.86
2018-02-11T18:15:09.245Z,81.79
2018-02-11T18:17:36.924Z,81.93
2018-02-11T18:20:04.593Z,82.03
2018-02-11T18:22:32.230Z,82.63
2018-02-11T18:24:59.872Z,82.79
2018-02-11T18:27:27.597Z,82.73
2018-02-11T18:29:55.330Z,82.96
2018-02-11T18:32:23.014Z,83.00
2018-02-11T18:34:51.044Z,82.95
2018-02-11T18:37:18.776Z,82.99
2018-02-11T18:39:46.468Z,82.94
2018-02-11T18:42:14.548Z,83.19
2018-02-11T18:44:42.257Z,83.19
2018-02-11T18:47:09.966Z,83.40
2018-02-11T18:49:37.704Z,83.42
2018-02-11T18:52:05.400Z,83.47
2018-02-11T18:54:33.089Z,83.48
2018-02-11T18:57:00.871Z,83.83
2018-02-11T18:59:28.657Z,83.82
2018-02-11T19:01:56.398Z,83.89
2018-02-11T19:04:24.174Z,83.91
2018-02-11T19:06:52.351Z,84.11
2018-02-11T19:09:20.084Z,84.17
2018-02-11T19:11:47.878Z,84.42
2018-02-11T19:14:15.639Z,84.41
2018-02-11T19:16:43.351Z,84.50
2018-02-11T19:19:11.080Z,84.73
2018-02-11T19:21:38.866Z,84.97
2018-02-11T19:24:06.695Z,85.04
2018-02-11T19:26:34.434Z,85.22
2018-02-11T19:29:02.099Z,85.41
2018-02-11T19:31:29.947Z,85.69
2018-02-11T19:33:57.645Z,85.77
2018-02-11T19:36:25.485Z,85.91
2018-02-11T19:38:53.643Z,85.82
2018-02-11T19:41:21.367Z,85.98
2018-02-11T19:43:49.761Z,86.03
2018-02-11T19:46:17.701Z,86.21
2018-02-11T19:48:45.460Z,86.14
2018-02-11T19:51:13.203Z,86.39
2018-02-11T19:53:41.151Z,86.52
2018-02-11T19:56:08.923Z,86.58
2018-02-11T19:58:36.662Z,87.02
2018-02-11T20:01:04.432Z,86.91
2018-02-11T20:03:32.206Z,87.10
2018-02-11T20:06:00.294Z,87.48
2018-02-11T20:08:28.455Z,87.55
2018-02-11T20:10:56.205Z,87.94
2018-02-11T20:13:23.941Z,88.15
2018-02-11T20:15:51.755Z,88.33
2018-02-11T20:18:19.533Z,88.21
2018-02-11T20:20:47.310Z,88.43
2018-02-11T20:23:15.104Z,88.44
2018-02-11T20:25:42.833Z,88.71
2018-02-11T20:28:10.616Z,88.95
2018-02-11T20:30:38.709Z,89.32
2018-02-11T20:33:06.411Z,89.38
2018-02-11T20:35:34.146Z,89.73
2018-02-11T20:38:02.258Z,89.95
2018-02-11T20:40:30.026Z,89.76
2018-02-11T20:42:58.197Z,89.72
2018-02-11T20:45:26.264Z,89.71
2018-02-11T20:47:53.995Z,89.83
2018-02-11T20:50:21.788Z,90.11
2018-02-11T20:52:49.542Z,90.19
2018-02-11T20:55:17.633Z,90.31
2018-02-11T20:57:45.299Z,90.22
2018-02-11T21:00:13.028Z,90.36
2018-02-11T21:02:40.829Z,90.20
2018-02-11T21:05:08.591Z,90.23
2018-02-11T21:07:36.668Z,90.06
2018-02-11T21:10:04.378Z,90.38
2018-02-11T21:12:32.117Z,90.19
2018-02-11T21:15:01.897Z,90.19
2018-02-11T21:17:29.627Z,90.29
2018-02-11T21:19:57.364Z,90.29
2018-02-11T21:22:25.434Z,90.87
2018-02-11T21:24:53.183Z,91.10
2018-02-11T21:27:20.919Z,91.64
2018-02-11T21:29:48.701Z,92.00
2018-02-11T21:32:16.387Z,92.18
2018-02-11T21:34:44.040Z,92.25
2018-02-11T21:37:11.794Z,92.23
2018-02-11T21:39:39.522Z,92.30
2018-02-11T21:42:08.020Z,92.19
2018-02-11T21:44:36.260Z,92.24
2018-02-11T21:47:04.482Z,92.50
2018-02-11T21:49:32.822Z,92.61
2018-02-11T21:52:00.938Z,92.81
2018-02-11T21:54:28.751Z,92.79
2018-02-11T21:56:56.526Z,92.79
2018-02-11T21:59:24.214Z,92.97
2018-02-11T22:01:52.008Z,93.09
2018-02-11T22:04:19.697Z,92.80
2018-02-11T22:06:47.359Z,92.79
2018-02-11T22:09:15.403Z,92.77
2018-02-11T22:11:43.067Z,92.74
2018-02-11T22:14:10.755Z,92.59
2018-02-11T22:16:38.859Z,92.59
2018-02-11T22:19:11.355Z,92.50
2018-02-11T22:21:39.008Z,92.48
2018-02-11T22:24:06.773Z,92.73
2018-02-11T22:26:34.763Z,92.91
2018-02-11T22:29:02.978Z,93.00
2018-02-11T22:31:30.739Z,93.04
2018-02-11T22:33:58.480Z,93.20
2018-02-11T22:36:26.259Z,93.01
2018-02-11T22:38:53.928Z,92.91
2018-02-11T22:41:21.539Z,93.02
2018-02-11T22:43:49.229Z,92.87
2018-02-11T22:46:17.703Z,92.92
2018-02-11T22:48:45.663Z,92.79
2018-02-11T22:51:13.371Z,92.84
2018-02-11T22:53:41.111Z,92.82
2018-02-11T22:56:09.067Z,92.78
2018-02-11T22:58:36.773Z,92.89
2018-02-11T23:01:04.792Z,92.94
2018-02-11T23:03:32.769Z,93.02
2018-02-11T23:06:00.552Z,92.99
2018-02-11T23:08:28.311Z,93.04
2018-02-11T23:10:56.019Z,93.27
2018-02-11T23:13:23.727Z,93.50
2018-02-11T23:15:51.467Z,93.36
2018-02-11T23:18:19.151Z,93.31
2018-02-11T23:20:46.912Z,93.35
2018-02-11T23:23:14.579Z,93.51
2018-02-11T23:25:49.277Z,93.34
2018-02-11T23:28:16.997Z,93.40
2018-02-11T23:30:44.949Z,93.33
2018-02-11T23:33:12.660Z,93.33
2018-02-11T23:35:40.370Z,93.12
2018-02-11T23:38:08.479Z,93.16
2018-02-11T23:40:36.168Z,93.37
2018-02-11T23:43:03.864Z,93.34
2018-02-11T23:45:31.944Z,93.61
2018-02-11T23:47:59.598Z,93.66
2018-02-11T23:50:27.397Z,93.58
2018-02-11T23:52:55.266Z,93.48
2018-02-11T23:55:23.043Z,93.22
2018-02-11T23:57:51.071Z,93.16
